Time;durP1;ratioP1;P1;durP2;ratioP2;P2;SDS_P1;SDS_P2;PMS_P1;PMS_P2;Temp;Humidity;BMP_temperature;BMP_pressure;BME280_temperature;BME280_humidity;BME280_pressure;Samples;Min_cycle;Max_cycle;Signal;HPM_P1;HPM_P2
2024/01/20 00:01:39;;;;;;;45.60;17.08;;;-2.60;99.90;;;;;;5004081;28;20041;-76
2024/01/20 00:04:04;;;;;;;40.38;13.65;;;-2.70;99.90;;;;;;5002314;28;20455;-74
2024/01/20 00:06:30;;;;;;;49.90;15.23;;;-2.80;99.90;;;;;;4991361;28;20049;-74
2024/01/20 00:08:56;;;;;;;43.05;14.82;;;-2.80;99.90;;;;;;4999963;28;20385;-73
2024/01/20 00:11:22;;;;;;;44.30;14.27;;;-2.80;99.90;;;;;;5004965;28;20087;-74
2024/01/20 00:13:47;;;;;;;49.13;14.13;;;-2.80;99.90;;;;;;4999626;28;20033;-74
2024/01/20 00:16:13;;;;;;;44.78;15.02;;;-2.70;99.90;;;;;;5004948;28;20030;-72
2024/01/20 00:18:38;;;;;;;38.85;13.70;;;-2.80;99.90;;;;;;5009808;28;20429;-74
2024/01/20 00:21:04;;;;;;;40.22;13.82;;;-2.80;99.90;;;;;;5010626;28;20037;-74
2024/01/20 00:23:30;;;;;;;48.83;15.20;;;-2.70;99.90;;;;;;5009847;28;20030;-75
2024/01/20 00:25:55;;;;;;;51.35;14.52;;;-2.80;99.90;;;;;;5008562;28;20034;-75
2024/01/20 00:28:21;;;;;;;41.33;14.52;;;-2.80;99.90;;;;;;4995661;28;20471;-75
2024/01/20 00:30:47;;;;;;;43.30;14.93;;;-2.80;99.90;;;;;;4999302;28;20105;-74
2024/01/20 00:33:12;;;;;;;45.13;14.32;;;-2.80;99.90;;;;;;5005969;28;20042;-73
2024/01/20 00:35:42;;;;;;;45.25;13.77;;;-2.80;99.90;;;;;;5000868;28;20455;-74
2024/01/20 00:38:08;;;;;;;39.70;14.27;;;-2.80;99.90;;;;;;4990959;28;20046;-74
2024/01/20 00:40:34;;;;;;;38.15;13.05;;;-2.90;99.90;;;;;;5003811;28;20039;-74
2024/01/20 00:42:59;;;;;;;43.70;13.65;;;-2.90;99.90;;;;;;5010329;28;20525;-73
2024/01/20 00:45:25;;;;;;;44.58;14.60;;;-3.00;99.90;;;;;;4993979;28;20050;-79
2024/01/20 00:47:51;;;;;;;38.00;13.60;;;-3.00;99.90;;;;;;4996317;28;20040;-74
2024/01/20 00:50:16;;;;;;;40.72;13.55;;;-3.00;99.90;;;;;;4998200;28;20034;-74
2024/01/20 00:52:42;;;;;;;43.42;13.85;;;-3.00;99.90;;;;;;5001208;28;20034;-74
2024/01/20 00:55:08;;;;;;;38.05;12.70;;;-3.00;99.90;;;;;;5008330;28;20030;-74
2024/01/20 00:57:34;;;;;;;40.80;13.90;;;-3.10;99.90;;;;;;5006715;28;20252;-73
2024/01/20 00:59:59;;;;;;;37.70;13.20;;;-3.00;99.90;;;;;;5002093;28;20061;-74
2024/01/20 01:02:26;;;;;;;43.55;15.05;;;-3.10;99.90;;;;;;4997266;28;20057;-73
2024/01/20 01:04:52;;;;;;;44.85;14.25;;;-3.10;99.90;;;;;;5008837;28;20084;-71
2024/01/20 01:07:17;;;;;;;36.40;13.02;;;-3.10;99.90;;;;;;5024927;28;20757;-74
2024/01/20 01:09:43;;;;;;;43.80;13.07;;;-3.10;99.90;;;;;;5008457;28;20049;-75
2024/01/20 01:12:08;;;;;;;40.50;13.60;;;-3.00;99.90;;;;;;5006769;28;20026;-74
2024/01/20 01:14:34;;;;;;;44.53;13.85;;;-3.00;99.90;;;;;;5002881;28;20056;-74
2024/01/20 01:17:00;;;;;;;37.90;13.35;;;-2.90;99.90;;;;;;5009755;28;20429;-74
2024/01/20 01:19:25;;;;;;;43.88;13.73;;;-2.90;99.90;;;;;;5009311;28;20038;-74
2024/01/20 01:21:51;;;;;;;52.90;15.30;;;-2.80;99.90;;;;;;5008842;28;20105;-75
2024/01/20 01:24:17;;;;;;;41.10;13.80;;;-2.80;99.90;;;;;;5009499;28;20037;-74
2024/01/20 01:26:42;;;;;;;39.42;13.10;;;-2.90;99.90;;;;;;5007854;28;20029;-74
2024/01/20 01:29:09;;;;;;;40.30;12.25;;;-3.00;99.90;;;;;;5007901;28;20041;-73
2024/01/20 01:31:34;;;;;;;45.03;13.75;;;-3.10;99.90;;;;;;4991256;28;20431;-73
2024/01/20 01:34:00;;;;;;;44.25;14.82;;;-3.10;99.90;;;;;;5004597;28;20160;-73
2024/01/20 01:36:25;;;;;;;42.92;14.00;;;-3.10;99.90;;;;;;5007483;28;20113;-73
2024/01/20 01:38:51;;;;;;;41.95;13.85;;;-3.10;99.90;;;;;;4993481;28;20101;-75
2024/01/20 01:41:17;;;;;;;49.47;14.35;;;-3.00;99.90;;;;;;4995725;28;20091;-76
2024/01/20 01:43:42;;;;;;;49.38;14.85;;;-3.00;99.90;;;;;;5008211;28;20057;-74
2024/01/20 01:46:08;;;;;;;42.55;13.77;;;-3.00;99.90;;;;;;5008406;28;20061;-74
2024/01/20 01:48:34;;;;;;;42.75;14.50;;;-3.10;99.90;;;;;;4999993;28;20030;-74
2024/01/20 01:51:04;;;;;;;42.38;14.63;;;-3.10;99.90;;;;;;5000292;28;20494;-75
2024/01/20 01:53:34;;;;;;;30.25;10.75;;;-3.10;99.90;;;;;;4996397;28;20686;-79
2024/01/20 01:56:00;;;;;;;43.88;14.82;;;-3.10;99.90;;;;;;5007467;28;20045;-74
2024/01/20 01:58:27;;;;;;;40.25;13.30;;;-3.20;99.90;;;;;;5008290;28;20026;-74
2024/01/20 02:00:54;;;;;;;40.42;13.77;;;-3.20;99.90;;;;;;5005267;28;20516;-74
2024/01/20 02:03:19;;;;;;;39.05;13.82;;;-3.20;99.90;;;;;;5003941;28;20108;-74
2024/01/20 02:05:45;;;;;;;49.90;14.45;;;-3.20;99.90;;;;;;5008344;28;20089;-72
2024/01/20 02:08:11;;;;;;;48.33;14.85;;;-3.20;99.90;;;;;;5007764;28;20034;-75
2024/01/20 02:10:43;;;;;;;38.35;13.27;;;-3.10;99.90;;;;;;5008266;28;20049;-74
2024/01/20 02:13:15;;;;;;;44.33;13.82;;;-3.20;99.90;;;;;;5007512;28;20497;-74
2024/01/20 02:15:41;;;;;;;41.03;13.25;;;-3.30;99.90;;;;;;4998427;28;20038;-75
2024/01/20 02:18:07;;;;;;;45.53;14.75;;;-3.30;99.90;;;;;;5000332;28;20037;-73
2024/01/20 02:20:34;;;;;;;38.65;14.65;;;-3.20;99.90;;;;;;5007631;28;20046;-81
2024/01/20 02:22:59;;;;;;;45.88;14.88;;;-3.10;99.90;;;;;;4996484;28;20034;-74
2024/01/20 02:25:25;;;;;;;49.22;13.82;;;-3.10;99.90;;;;;;5003981;28;20035;-73
2024/01/20 02:27:50;;;;;;;42.58;14.00;;;-3.20;99.90;;;;;;4996050;28;20037;-75
2024/01/20 02:30:16;;;;;;;45.10;14.23;;;-3.20;99.90;;;;;;4993876;28;20093;-75
2024/01/20 02:32:42;;;;;;;40.97;13.18;;;-3.20;99.90;;;;;;4999694;28;20034;-75
2024/01/20 02:35:09;;;;;;;38.60;13.65;;;-3.10;99.90;;;;;;5002508;28;20034;-73
2024/01/20 02:37:34;;;;;;;49.92;15.25;;;-3.20;99.90;;;;;;4988692;28;20117;-80
2024/01/20 02:40:00;;;;;;;50.25;15.38;;;-3.20;99.90;;;;;;4999280;28;20113;-75
2024/01/20 02:42:26;;;;;;;42.40;14.77;;;-3.20;99.90;;;;;;4994432;28;20311;-74
2024/01/20 02:44:51;;;;;;;39.53;13.85;;;-3.10;99.90;;;;;;5002731;28;20057;-74
2024/01/20 02:47:18;;;;;;;40.65;13.60;;;-3.10;99.90;;;;;;4994982;28;20796;-74
2024/01/20 02:49:44;;;;;;;39.22;13.30;;;-3.20;99.90;;;;;;5003686;28;20562;-77
2024/01/20 02:52:09;;;;;;;36.55;12.32;;;-3.20;99.90;;;;;;5007057;28;20044;-74
2024/01/20 02:54:35;;;;;;;44.72;14.23;;;-3.20;99.90;;;;;;5006453;28;20084;-79
2024/01/20 02:57:00;;;;;;;44.03;13.45;;;-3.30;99.90;;;;;;5007910;28;20034;-75
2024/01/20 02:59:26;;;;;;;42.25;13.95;;;-3.40;99.90;;;;;;4998631;28;20052;-74
2024/01/20 03:01:52;;;;;;;44.88;13.73;;;-3.50;99.90;;;;;;4988561;28;20053;-75
2024/01/20 03:04:17;;;;;;;42.35;13.43;;;-3.50;99.90;;;;;;4989886;28;20363;-73
2024/01/20 03:06:43;;;;;;;37.63;13.65;;;-3.60;99.90;;;;;;5000708;28;20030;-74
2024/01/20 03:09:14;;;;;;;42.05;14.80;;;-3.70;99.90;;;;;;4997690;28;20041;-75
2024/01/20 03:11:43;;;;;;;43.13;14.60;;;-3.60;99.90;;;;;;5006819;28;20030;-73
2024/01/20 03:14:09;;;;;;;45.05;13.90;;;-3.70;99.90;;;;;;5011093;28;20033;-75
2024/01/20 03:16:35;;;;;;;41.33;12.90;;;-3.60;99.90;;;;;;5011414;28;20104;-78
2024/01/20 03:19:01;;;;;;;43.90;14.82;;;-3.70;99.90;;;;;;5009771;28;20033;-76
2024/01/20 03:21:26;;;;;;;52.65;15.32;;;-3.90;99.90;;;;;;5004945;28;20037;-74
2024/01/20 03:23:53;;;;;;;42.90;14.23;;;-3.90;99.90;;;;;;5010745;28;20034;-75
2024/01/20 03:26:20;;;;;;;45.75;14.52;;;-3.80;99.90;;;;;;5010339;28;20038;-74
2024/01/20 03:28:45;;;;;;;45.13;14.55;;;-3.80;99.90;;;;;;5010143;28;20541;-74
2024/01/20 03:31:11;;;;;;;45.92;13.70;;;-3.80;99.90;;;;;;5001476;28;20189;-75
2024/01/20 03:33:37;;;;;;;42.20;15.18;;;-3.80;99.90;;;;;;5005062;28;20030;-79
2024/01/20 03:36:03;;;;;;;45.97;15.18;;;-3.70;99.90;;;;;;4992787;28;20034;-75
2024/01/20 03:38:29;;;;;;;42.25;14.60;;;-3.70;99.90;;;;;;5024675;28;20127;-74
2024/01/20 03:40:54;;;;;;;45.42;14.20;;;-3.70;99.90;;;;;;5005264;28;20131;-74
2024/01/20 03:43:20;;;;;;;44.28;15.85;;;-3.80;99.90;;;;;;5002414;28;20441;-74
2024/01/20 03:45:46;;;;;;;51.53;15.85;;;-3.80;99.90;;;;;;5010337;28;20076;-73
2024/01/20 03:48:12;;;;;;;40.53;13.85;;;-3.80;99.90;;;;;;5009915;28;20136;-73
2024/01/20 03:50:37;;;;;;;51.13;16.42;;;-3.80;99.90;;;;;;5009653;28;20038;-77
2024/01/20 03:53:03;;;;;;;43.95;14.77;;;-3.70;99.90;;;;;;5009327;28;20068;-73
2024/01/20 03:55:29;;;;;;;49.47;16.33;;;-3.70;99.90;;;;;;5010496;28;20124;-74
2024/01/20 03:57:54;;;;;;;56.13;17.17;;;-3.80;99.90;;;;;;5008936;28;20374;-77
2024/01/20 04:00:20;;;;;;;59.00;17.08;;;-3.80;99.90;;;;;;5010008;28;20129;-74
2024/01/20 04:02:45;;;;;;;45.28;15.93;;;-3.70;99.90;;;;;;5010401;28;20030;-74
2024/01/20 04:05:11;;;;;;;45.88;14.73;;;-3.60;99.90;;;;;;5010789;28;20466;-76
2024/01/20 04:07:38;;;;;;;49.20;16.33;;;-3.60;99.90;;;;;;5010335;28;20439;-79
2024/01/20 04:10:05;;;;;;;47.28;15.32;;;-3.60;99.90;;;;;;5010416;28;20057;-74
2024/01/20 04:12:30;;;;;;;53.67;16.02;;;-3.80;99.90;;;;;;5003913;28;20118;-75
2024/01/20 04:14:56;;;;;;;50.97;16.02;;;-3.80;99.90;;;;;;5011882;28;20128;-74
2024/01/20 04:17:22;;;;;;;46.95;15.85;;;-3.80;99.90;;;;;;5009756;28;20036;-74
2024/01/20 04:19:48;;;;;;;55.67;16.70;;;-3.90;99.90;;;;;;5009822;28;20042;-73
2024/01/20 04:22:13;;;;;;;49.88;17.75;;;-4.00;99.90;;;;;;5002132;28;20530;-74
2024/01/20 04:24:39;;;;;;;50.22;16.85;;;-4.00;99.90;;;;;;4991119;28;20030;-78
2024/01/20 04:27:05;;;;;;;47.30;15.60;;;-4.00;99.90;;;;;;4998408;28;20459;-74
2024/01/20 04:29:30;;;;;;;45.67;15.80;;;-3.90;99.90;;;;;;5009554;28;20037;-73
2024/01/20 04:31:56;;;;;;;57.70;17.42;;;-3.90;99.90;;;;;;5006806;28;20033;-72
2024/01/20 04:34:21;;;;;;;62.00;18.35;;;-4.00;99.90;;;;;;5010470;28;20080;-74
2024/01/20 04:36:47;;;;;;;54.40;17.67;;;-4.10;99.90;;;;;;5009516;28;20037;-75
2024/01/20 04:39:13;;;;;;;55.17;18.17;;;-4.00;99.90;;;;;;5008691;28;20561;-73
2024/01/20 04:41:38;;;;;;;55.88;16.85;;;-4.00;99.90;;;;;;4999204;28;20037;-72
2024/01/20 04:44:04;;;;;;;60.17;18.25;;;-4.00;99.90;;;;;;5003798;28;20057;-73
2024/01/20 04:46:30;;;;;;;56.05;17.73;;;-4.00;99.90;;;;;;5009229;28;20029;-74
2024/01/20 04:48:55;;;;;;;51.95;17.35;;;-4.00;99.90;;;;;;5008354;28;20045;-72
2024/01/20 04:51:21;;;;;;;57.60;16.90;;;-4.00;99.90;;;;;;4998214;28;20391;-74
2024/01/20 04:53:47;;;;;;;62.80;17.20;;;-4.00;99.90;;;;;;4992548;28;20363;-72
2024/01/20 04:56:12;;;;;;;54.75;18.40;;;-4.00;99.90;;;;;;5000184;28;21403;-72
2024/01/20 04:58:38;;;;;;;54.70;17.13;;;-3.90;99.90;;;;;;5009721;28;20030;-74
2024/01/20 05:01:04;;;;;;;57.20;17.50;;;-3.90;99.90;;;;;;5001990;28;20089;-75
2024/01/20 05:03:30;;;;;;;55.33;17.92;;;-3.90;99.90;;;;;;4994549;28;20113;-74
2024/01/20 05:05:56;;;;;;;60.80;18.65;;;-3.90;99.90;;;;;;5001808;28;20133;-73
2024/01/20 05:08:22;;;;;;;55.53;17.77;;;-3.90;99.90;;;;;;5009256;28;20034;-73
2024/01/20 05:10:47;;;;;;;56.70;17.27;;;-3.90;99.90;;;;;;5008749;28;20038;-73
2024/01/20 05:13:13;;;;;;;61.55;18.85;;;-3.90;99.90;;;;;;5009668;28;20057;-75
2024/01/20 05:15:39;;;;;;;59.88;18.83;;;-3.80;99.90;;;;;;4992601;28;20043;-72
2024/01/20 05:18:04;;;;;;;67.60;19.38;;;-3.70;99.90;;;;;;5007595;28;20104;-74
2024/01/20 05:20:30;;;;;;;57.53;18.85;;;-3.80;99.90;;;;;;5009671;28;20142;-74
2024/01/20 05:22:56;;;;;;;63.05;19.80;;;-3.90;99.90;;;;;;5009062;28;20033;-73
2024/01/20 05:25:21;;;;;;;62.83;19.33;;;-3.90;99.90;;;;;;5008108;28;20034;-74
2024/01/20 05:27:47;;;;;;;56.70;18.80;;;-3.90;99.90;;;;;;5007573;28;20457;-75
2024/01/20 05:30:13;;;;;;;61.65;18.38;;;-3.90;99.90;;;;;;5009203;28;20036;-75
2024/01/20 05:32:42;;;;;;;53.40;17.15;;;-4.00;99.90;;;;;;5007063;28;20044;-74
2024/01/20 05:35:08;;;;;;;50.50;16.35;;;-4.10;99.90;;;;;;5008438;28;20030;-72
2024/01/20 05:37:33;;;;;;;55.13;16.58;;;-4.20;99.90;;;;;;4998041;28;20777;-73
2024/01/20 05:39:59;;;;;;;56.75;17.80;;;-4.30;99.90;;;;;;4989625;28;20052;-74
2024/01/20 05:42:24;;;;;;;48.47;16.35;;;-4.50;99.90;;;;;;4995024;28;20117;-73
2024/01/20 05:44:50;;;;;;;55.80;15.38;;;-4.60;99.90;;;;;;4987171;28;20058;-74
2024/01/20 05:47:16;;;;;;;51.70;15.93;;;-4.70;99.90;;;;;;5004204;28;20037;-73
2024/01/20 05:49:41;;;;;;;51.67;15.73;;;-4.70;99.90;;;;;;5008204;28;20045;-74
2024/01/20 05:52:07;;;;;;;49.90;15.43;;;-4.70;99.90;;;;;;5007284;28;20026;-74
2024/01/20 05:54:33;;;;;;;58.47;16.90;;;-4.60;99.90;;;;;;5004011;28;20510;-74
2024/01/20 05:56:58;;;;;;;48.53;15.43;;;-4.60;99.90;;;;;;4998574;28;20125;-73
2024/01/20 05:59:24;;;;;;;53.28;17.23;;;-4.70;99.90;;;;;;5005494;28;20073;-73
2024/01/20 06:01:53;;;;;;;60.13;17.42;;;-4.70;99.90;;;;;;4989574;28;20117;-75
2024/01/20 06:04:18;;;;;;;50.83;15.93;;;-4.70;99.90;;;;;;4989328;28;20041;-73
2024/01/20 06:06:46;;;;;;;54.20;15.32;;;-4.60;99.90;;;;;;4989421;28;20034;-79
2024/01/20 06:09:12;;;;;;;52.20;16.17;;;-4.70;99.90;;;;;;4988914;28;20487;-74
2024/01/20 06:11:37;;;;;;;55.00;15.20;;;-4.80;99.90;;;;;;4989422;28;20030;-74
2024/01/20 06:14:03;;;;;;;54.05;14.82;;;-4.80;99.90;;;;;;5006879;28;20029;-73
2024/01/20 06:16:29;;;;;;;58.63;16.83;;;-4.80;99.90;;;;;;5009039;28;20474;-73
2024/01/20 06:18:54;;;;;;;65.90;18.52;;;-4.70;99.90;;;;;;5005539;28;20022;-73
2024/01/20 06:21:23;;;;;;;56.35;16.50;;;-4.60;99.90;;;;;;5007231;28;20038;-75
2024/01/20 06:23:50;;;;;;;59.13;17.52;;;-4.60;99.90;;;;;;5008073;28;20041;-79
2024/01/20 06:26:15;;;;;;;59.58;18.05;;;-4.50;99.90;;;;;;5008462;28;20219;-73
2024/01/20 06:28:42;;;;;;;53.30;16.35;;;-4.50;99.90;;;;;;5007193;28;20096;-75
2024/01/20 06:31:08;;;;;;;54.55;17.30;;;-4.50;99.90;;;;;;5006595;28;20714;-75
2024/01/20 06:33:33;;;;;;;54.13;17.10;;;-4.50;99.90;;;;;;5023848;28;20061;-74
2024/01/20 06:35:59;;;;;;;68.75;18.15;;;-4.50;99.90;;;;;;5007924;28;20036;-74
2024/01/20 06:38:25;;;;;;;58.40;17.92;;;-4.50;99.90;;;;;;5007283;28;20026;-74
2024/01/20 06:40:50;;;;;;;52.55;16.10;;;-4.60;99.90;;;;;;5020146;28;20038;-79
2024/01/20 06:43:16;;;;;;;65.15;17.65;;;-4.70;99.90;;;;;;5006662;28;20129;-73
2024/01/20 06:45:42;;;;;;;85.68;18.40;;;-4.80;99.90;;;;;;5003921;28;20057;-73
2024/01/20 06:48:09;;;;;;;57.53;16.00;;;-4.80;99.90;;;;;;4993355;28;20093;-74
2024/01/20 06:50:39;;;;;;;68.43;19.20;;;-4.90;99.90;;;;;;5009585;28;20040;-74
2024/01/20 06:53:05;;;;;;;75.30;17.55;;;-4.90;99.90;;;;;;5002175;28;20030;-73
2024/01/20 06:55:30;;;;;;;80.38;17.40;;;-4.90;99.90;;;;;;5003594;28;20038;-73
2024/01/20 06:57:56;;;;;;;76.38;17.98;;;-4.90;99.90;;;;;;5000158;28;20399;-74
2024/01/20 07:00:23;;;;;;;117.78;19.27;;;-5.00;99.90;;;;;;5002056;28;20042;-73
2024/01/20 07:02:48;;;;;;;76.93;17.55;;;-5.10;99.90;;;;;;5006228;28;20018;-77
2024/01/20 07:05:15;;;;;;;157.57;21.42;;;-5.10;99.90;;;;;;5001619;28;20038;-75
2024/01/20 07:07:41;;;;;;;140.20;22.20;;;-5.10;99.90;;;;;;5006659;28;20026;-73
2024/01/20 07:10:08;;;;;;;112.90;21.73;;;-5.10;99.90;;;;;;5004040;28;20485;-75
2024/01/20 07:12:34;;;;;;;66.60;19.98;;;-5.10;99.90;;;;;;5025529;28;20045;-75
2024/01/20 07:15:00;;;;;;;73.07;21.83;;;-5.10;99.90;;;;;;5001266;28;20037;-75
2024/01/20 07:17:25;;;;;;;67.05;19.15;;;-5.00;99.90;;;;;;5008744;28;20159;-74
2024/01/20 07:19:51;;;;;;;84.68;23.70;;;-4.90;99.90;;;;;;5006090;28;20064;-78
2024/01/20 07:22:16;;;;;;;70.15;19.95;;;-4.80;99.90;;;;;;5009020;28;20038;-74
2024/01/20 07:24:42;;;;;;;68.47;19.98;;;-4.90;99.90;;;;;;5010387;28;20488;-74
2024/01/20 07:27:08;;;;;;;64.70;20.70;;;-4.90;99.90;;;;;;5006205;28;20022;-73
2024/01/20 07:29:33;;;;;;;66.85;20.52;;;-4.90;99.90;;;;;;5001079;28;20038;-74
2024/01/20 07:31:59;;;;;;;70.10;19.05;;;-4.80;99.90;;;;;;5006877;28;20477;-74
2024/01/20 07:34:25;;;;;;;67.68;19.52;;;-4.70;99.90;;;;;;5006782;28;20026;-73
2024/01/20 07:36:50;;;;;;;66.43;19.50;;;-4.70;99.90;;;;;;5004559;28;20032;-79
2024/01/20 07:39:16;;;;;;;68.45;19.40;;;-4.70;99.90;;;;;;5009279;28;20033;-72
2024/01/20 07:41:41;;;;;;;107.75;20.08;;;-4.60;99.90;;;;;;5025817;28;20025;-73
2024/01/20 07:44:07;;;;;;;58.90;18.48;;;-4.70;99.90;;;;;;5000556;28;20817;-75
2024/01/20 07:46:33;;;;;;;67.13;19.38;;;-4.70;99.90;;;;;;5009292;28;20042;-73
2024/01/20 07:48:58;;;;;;;73.85;19.65;;;-4.70;99.90;;;;;;4998876;28;20042;-74
2024/01/20 07:51:24;;;;;;;59.35;18.58;;;-4.80;99.90;;;;;;5002953;28;20037;-74
2024/01/20 07:53:49;;;;;;;59.08;17.40;;;-4.90;99.90;;;;;;5007884;28;20037;-74
2024/01/20 07:56:16;;;;;;;62.92;16.92;;;-4.80;99.90;;;;;;5007660;28;20108;-77
2024/01/20 07:58:42;;;;;;;55.55;17.52;;;-4.90;99.90;;;;;;5009200;28;20038;-75
2024/01/20 08:01:07;;;;;;;72.70;21.30;;;-4.70;99.90;;;;;;5004466;28;20042;-74
2024/01/20 08:03:33;;;;;;;64.97;18.90;;;-4.60;99.90;;;;;;5006767;28;20105;-74
2024/01/20 08:06:00;;;;;;;52.80;17.23;;;-4.60;99.90;;;;;;5006466;28;20082;-74
2024/01/20 08:08:26;;;;;;;91.25;25.42;;;-4.80;99.90;;;;;;5004317;28;20192;-73
2024/01/20 08:10:51;;;;;;;74.03;21.77;;;-4.80;99.90;;;;;;5005573;28;20030;-79
2024/01/20 08:13:17;;;;;;;80.90;22.85;;;-4.70;99.90;;;;;;5005340;28;20687;-73
2024/01/20 08:15:43;;;;;;;84.80;24.02;;;-4.70;99.90;;;;;;5007424;28;20068;-75
2024/01/20 08:18:09;;;;;;;66.28;19.58;;;-4.70;99.90;;;;;;5006747;28;20044;-75
2024/01/20 08:20:34;;;;;;;63.95;19.42;;;-4.70;99.90;;;;;;5002985;28;20045;-72
2024/01/20 08:23:00;;;;;;;60.53;17.50;;;-4.70;99.90;;;;;;5002721;28;20367;-75
2024/01/20 08:25:27;;;;;;;62.13;17.98;;;-4.70;99.90;;;;;;5005135;28;20112;-74
2024/01/20 08:27:52;;;;;;;60.22;17.25;;;-4.80;99.90;;;;;;5004557;28;20114;-79
2024/01/20 08:30:18;;;;;;;54.08;15.70;;;-4.90;99.90;;;;;;4999824;28;20109;-74
2024/01/20 08:32:43;;;;;;;61.25;17.10;;;-5.00;99.90;;;;;;5007039;28;20458;-77
2024/01/20 08:35:10;;;;;;;54.17;16.85;;;-5.00;99.90;;;;;;4999530;28;20037;-74
2024/01/20 08:37:35;;;;;;;58.33;17.63;;;-5.20;99.90;;;;;;5007637;28;20022;-73
2024/01/20 08:40:02;;;;;;;62.00;18.58;;;-5.20;99.90;;;;;;5007503;28;20482;-75
2024/01/20 08:42:28;;;;;;;68.55;19.95;;;-5.10;99.90;;;;;;5007635;28;20100;-74
2024/01/20 08:44:53;;;;;;;54.50;18.35;;;-5.00;99.90;;;;;;5003776;28;20104;-79
2024/01/20 08:47:19;;;;;;;57.38;17.52;;;-4.90;99.90;;;;;;5000480;28;20036;-74
2024/01/20 08:49:47;;;;;;;77.97;23.20;;;-4.90;99.90;;;;;;5004074;28;20037;-74
2024/01/20 08:52:13;;;;;;;62.47;17.85;;;-5.00;99.90;;;;;;5007546;28;20021;-74
2024/01/20 08:54:39;;;;;;;61.80;18.15;;;-5.00;99.90;;;;;;5002268;28;20037;-73
2024/01/20 08:57:04;;;;;;;63.42;20.70;;;-5.00;99.90;;;;;;5008375;28;20033;-74
2024/01/20 08:59:30;;;;;;;60.95;18.83;;;-5.00;99.90;;;;;;5009592;28;20363;-75
2024/01/20 09:01:56;;;;;;;60.35;18.33;;;-4.90;99.90;;;;;;5008224;28;20076;-78
2024/01/20 09:04:21;;;;;;;64.10;20.35;;;-4.80;99.90;;;;;;5009568;28;20030;-74
2024/01/20 09:06:47;;;;;;;60.20;19.40;;;-4.80;99.90;;;;;;5008219;28;20034;-75
2024/01/20 09:09:13;;;;;;;61.15;18.80;;;-4.80;99.90;;;;;;5007973;28;20104;-75
2024/01/20 09:11:38;;;;;;;59.50;18.63;;;-4.80;99.90;;;;;;5009344;28;20053;-74
2024/01/20 09:14:05;;;;;;;68.57;20.15;;;-4.80;99.90;;;;;;5007492;28;20080;-74
2024/01/20 09:16:30;;;;;;;66.65;19.50;;;-4.70;99.90;;;;;;5007741;28;20045;-74
2024/01/20 09:18:56;;;;;;;56.28;19.40;;;-4.70;99.90;;;;;;5009308;28;20041;-79
2024/01/20 09:21:22;;;;;;;55.78;18.65;;;-4.60;99.90;;;;;;5008965;28;20621;-73
2024/01/20 09:23:47;;;;;;;61.38;19.02;;;-4.50;99.90;;;;;;5009423;28;20463;-74
2024/01/20 09:26:13;;;;;;;62.78;18.70;;;-4.20;99.90;;;;;;5008674;28;20458;-75
2024/01/20 09:28:38;;;;;;;67.95;21.38;;;-3.90;99.90;;;;;;5009572;28;20072;-75
2024/01/20 09:31:04;;;;;;;114.05;46.42;;;-3.50;99.90;;;;;;5008667;28;20034;-73
2024/01/20 09:33:31;;;;;;;61.42;19.65;;;-3.10;99.90;;;;;;5009071;28;20123;-74
2024/01/20 09:35:57;;;;;;;64.75;19.80;;;-2.90;99.90;;;;;;5009120;28;20064;-80
2024/01/20 09:38:26;;;;;;;59.33;18.27;;;-2.70;99.90;;;;;;5008874;28;20352;-75
2024/01/20 09:40:52;;;;;;;64.47;20.20;;;-2.60;99.90;;;;;;5017699;28;20124;-73
2024/01/20 09:43:18;;;;;;;83.68;26.73;;;-2.50;99.90;;;;;;5027904;28;20553;-76
2024/01/20 09:45:45;;;;;;;69.03;22.52;;;-2.20;99.90;;;;;;5009920;28;20029;-74
2024/01/20 09:48:11;;;;;;;80.22;25.85;;;-2.00;99.90;;;;;;5008313;28;20053;-74
2024/01/20 09:50:36;;;;;;;61.30;20.40;;;-1.70;99.90;;;;;;5007747;28;20034;-75
2024/01/20 09:53:16;;;;;;;60.78;20.25;;;-1.60;99.90;;;;;;5008315;28;20033;-75
2024/01/20 09:55:44;;;;;;;64.70;21.83;;;-1.60;99.90;;;;;;5007484;28;20063;-73
2024/01/20 09:58:14;;;;;;;62.83;20.65;;;-1.60;99.90;;;;;;5008827;28;20311;-74
2024/01/20 10:00:40;;;;;;;47.03;14.85;;;-1.50;99.90;;;;;;5009104;28;20038;-74
2024/01/20 10:03:08;;;;;;;61.42;21.15;;;-1.60;99.90;;;;;;5008409;28;20037;-74
2024/01/20 10:05:34;;;;;;;58.78;20.70;;;-1.70;99.90;;;;;;5008526;28;20034;-75
2024/01/20 10:08:01;;;;;;;133.38;57.17;;;-1.80;99.90;;;;;;5007202;28;20028;-80
2024/01/20 10:10:27;;;;;;;64.30;22.58;;;-1.80;99.90;;;;;;5009040;28;20060;-75
2024/01/20 10:12:54;;;;;;;69.25;22.50;;;-1.70;99.90;;;;;;5006976;28;20467;-76
2024/01/20 10:15:27;;;;;;;67.68;23.00;;;-1.50;99.90;;;;;;5007064;28;20025;-74
2024/01/20 10:17:54;;;;;;;63.20;21.48;;;-1.40;99.90;;;;;;5007523;28;20037;-76
2024/01/20 10:20:24;;;;;;;63.47;20.77;;;-1.20;99.90;;;;;;5008415;28;20301;-75
2024/01/20 10:22:51;;;;;;;59.40;20.50;;;-1.10;99.90;;;;;;5012667;28;20061;-77
2024/01/20 10:25:20;;;;;;;59.53;20.42;;;-1.00;99.90;;;;;;5011166;28;20073;-74
2024/01/20 10:27:47;;;;;;;54.67;19.42;;;-1.00;99.90;;;;;;5011250;28;20030;-73
2024/01/20 10:30:18;;;;;;;58.72;19.25;;;-0.90;99.90;;;;;;5011939;28;20378;-74
2024/01/20 10:32:44;;;;;;;58.88;19.17;;;-0.60;99.90;;;;;;5011403;28;20030;-75
2024/01/20 10:35:10;;;;;;;50.05;17.77;;;-0.40;99.90;;;;;;5010584;28;20033;-73
2024/01/20 10:37:42;;;;;;;53.35;18.27;;;-0.30;99.90;;;;;;5011856;28;20109;-73
2024/01/20 10:40:13;;;;;;;54.67;19.05;;;-0.30;99.90;;;;;;5010606;28;20065;-74
2024/01/20 10:42:44;;;;;;;57.22;20.35;;;0.00;99.90;;;;;;5011328;28;20486;-74
2024/01/20 10:45:17;;;;;;;58.45;19.38;;;0.00;99.90;;;;;;5008804;28;20104;-74
2024/01/20 10:47:58;;;;;;;52.80;19.73;;;0.10;99.90;;;;;;5011910;28;20030;-74
2024/01/20 10:50:25;;;;;;;56.33;21.05;;;0.20;99.90;;;;;;5010765;28;20034;-75
2024/01/20 10:52:51;;;;;;;52.22;19.17;;;0.10;99.90;;;;;;5010445;28;20084;-74
2024/01/20 10:55:18;;;;;;;59.15;20.63;;;0.30;99.90;;;;;;5010652;28;20079;-74
2024/01/20 10:57:45;;;;;;;59.95;19.50;;;0.50;99.90;;;;;;5011411;28;20756;-76
2024/01/20 11:00:12;;;;;;;54.25;20.30;;;0.50;99.90;;;;;;5011465;28;20057;-75
2024/01/20 11:02:38;;;;;;;57.22;21.02;;;0.60;99.90;;;;;;5011048;28;20038;-75
2024/01/20 11:05:22;;;;;;;49.67;19.25;;;0.60;99.90;;;;;;5025220;28;20029;-78
2024/01/20 11:07:58;;;;;;;53.78;19.85;;;0.80;99.90;;;;;;5010280;28;20513;-74
2024/01/20 11:10:24;;;;;;;56.28;20.83;;;0.90;99.90;;;;;;5007288;28;20092;-75
2024/01/20 11:13:07;;;;;;;58.80;20.17;;;0.80;99.90;;;;;;5008439;28;20042;-74
2024/01/20 11:15:34;;;;;;;49.00;19.30;;;0.80;99.90;;;;;;5012189;28;20045;-74
2024/01/20 11:18:00;;;;;;;51.25;19.17;;;1.00;99.90;;;;;;5010002;28;20038;-75
2024/01/20 11:20:27;;;;;;;56.15;20.58;;;1.00;99.90;;;;;;4996150;28;20062;-75
2024/01/20 11:22:55;;;;;;;48.15;17.67;;;1.10;99.90;;;;;;5001695;28;20034;-75
2024/01/20 11:25:22;;;;;;;51.22;18.52;;;1.10;99.90;;;;;;5007912;28;20478;-75
2024/01/20 11:27:58;;;;;;;48.97;18.50;;;1.20;99.90;;;;;;5004990;28;20558;-76
2024/01/20 11:30:34;;;;;;;51.78;18.95;;;1.40;99.90;;;;;;5003331;28;20038;-75
2024/01/20 11:33:00;;;;;;;48.63;18.90;;;1.80;99.90;;;;;;4998889;28;20117;-76
2024/01/20 11:35:27;;;;;;;47.05;18.92;;;1.80;99.90;;;;;;5007151;28;20152;-76
2024/01/20 11:37:57;;;;;;;52.50;18.90;;;1.90;99.90;;;;;;5002799;28;20110;-76
2024/01/20 11:40:23;;;;;;;47.55;17.73;;;2.20;99.90;;;;;;5001416;28;20370;-76
2024/01/20 11:42:49;;;;;;;49.28;18.20;;;2.10;99.90;;;;;;4998698;28;20029;-75
2024/01/20 11:45:16;;;;;;;42.88;16.63;;;2.20;99.90;;;;;;5009876;28;20036;-76
2024/01/20 11:47:42;;;;;;;43.60;16.77;;;2.20;99.90;;;;;;5008962;28;20045;-76
2024/01/20 11:50:09;;;;;;;43.10;15.95;;;2.30;99.90;;;;;;5009158;28;20039;-78
2024/01/20 11:52:35;;;;;;;42.35;15.73;;;2.30;99.90;;;;;;5010437;28;20053;-76
2024/01/20 11:55:01;;;;;;;42.83;17.33;;;2.40;99.90;;;;;;5009701;28;20184;-74
2024/01/20 11:57:29;;;;;;;36.60;15.27;;;2.20;99.90;;;;;;5008943;28;20108;-76
2024/01/20 11:59:56;;;;;;;40.30;16.10;;;2.40;99.90;;;;;;5006243;28;20037;-76
2024/01/20 12:02:22;;;;;;;42.58;16.20;;;2.70;99.90;;;;;;4997198;28;20088;-76
2024/01/20 12:04:48;;;;;;;43.63;15.82;;;3.00;99.90;;;;;;5009315;28;20434;-76
2024/01/20 12:07:14;;;;;;;42.33;15.52;;;3.10;99.90;;;;;;5008724;28;20038;-76
2024/01/20 12:09:46;;;;;;;41.95;15.40;;;3.10;99.90;;;;;;5009562;28;20385;-76
2024/01/20 12:12:15;;;;;;;38.83;14.05;;;3.30;99.90;;;;;;5007792;28;20108;-76
2024/01/20 12:14:44;;;;;;;35.58;14.88;;;3.30;99.90;;;;;;5021666;28;20040;-76
2024/01/20 12:17:13;;;;;;;42.53;15.43;;;3.60;99.90;;;;;;5002033;28;20026;-77
2024/01/20 12:19:40;;;;;;;38.00;16.08;;;3.40;99.90;;;;;;4997209;28;20042;-76
2024/01/20 12:22:12;;;;;;;42.35;17.73;;;3.30;99.90;;;;;;5008941;28;20480;-78
2024/01/20 12:24:38;;;;;;;39.08;16.25;;;3.30;99.90;;;;;;5008821;28;20030;-76